< < Back
Terminal Aerodrome Forecast


Current Version              Previous Versions:   1  2  3  4  5  6  7  8  9  

Terminal Aerodrome Forecast

616
FTUS44 KMRX 301732
TAFTYS
TAF
KTYS 301732Z 3018/3118 27007KT P6SM SCT045
     FM310300 00000KT P6SM SCT150 BKN250
     FM311300 23008KT P6SM FEW040 BKN150
     FM311700 24012G20KT P6SM SCT045 SCT200=



Latest METAR

517
SAUS80 KWBC 302000 RRA
MTRTYS
METAR KTYS 301953Z 24009G19KT 10SM FEW045 FEW250 19/M01 A3008 RMK AO2
SLP179 T01891011


USA.gov is the U.S. government's official web portal to all federal, state and local government web resources and services.